sensor_id;sensor_type;location;lat;lon;timestamp;pressure;altitude;pressure_sealevel;temperature;humidity
31483;BME280;18103;52.246;8.052;2023-08-24T00:01:25;100679.63;;;19.21;82.08
31483;BME280;18103;52.246;8.052;2023-08-24T00:03:51;100683.50;;;19.18;81.68
31483;BME280;18103;52.246;8.052;2023-08-24T00:06:16;100677.97;;;19.11;82.30
31483;BME280;18103;52.246;8.052;2023-08-24T00:08:46;100684.66;;;19.07;82.37
31483;BME280;18103;52.246;8.052;2023-08-24T00:11:16;100672.81;;;19.02;82.25
31483;BME280;18103;52.246;8.052;2023-08-24T00:13:42;100672.63;;;18.95;82.32
31483;BME280;18103;52.246;8.052;2023-08-24T00:16:20;100672.13;;;18.91;82.55
31483;BME280;18103;52.246;8.052;2023-08-24T00:18:48;100673.44;;;18.87;82.27
31483;BME280;18103;52.246;8.052;2023-08-24T00:21:14;100662.06;;;18.85;82.75
31483;BME280;18103;52.246;8.052;2023-08-24T00:23:42;100665.56;;;18.86;83.06
31483;BME280;18103;52.246;8.052;2023-08-24T00:26:11;100666.94;;;18.90;82.71
31483;BME280;18103;52.246;8.052;2023-08-24T00:28:38;100669.56;;;18.81;82.56
31483;BME280;18103;52.246;8.052;2023-08-24T00:31:04;100669.44;;;18.75;83.18
31483;BME280;18103;52.246;8.052;2023-08-24T00:33:31;100666.91;;;18.73;83.06
31483;BME280;18103;52.246;8.052;2023-08-24T00:36:02;100665.59;;;18.69;83.02
31483;BME280;18103;52.246;8.052;2023-08-24T00:38:33;100663.38;;;18.64;83.07
31483;BME280;18103;52.246;8.052;2023-08-24T00:40:58;100662.03;;;18.60;83.42
31483;BME280;18103;52.246;8.052;2023-08-24T00:43:27;100655.69;;;18.61;82.90
31483;BME280;18103;52.246;8.052;2023-08-24T00:45:58;100650.69;;;18.58;82.70
31483;BME280;18103;52.246;8.052;2023-08-24T00:48:27;100648.53;;;18.54;83.14
31483;BME280;18103;52.246;8.052;2023-08-24T00:51:03;100650.00;;;18.56;82.76
31483;BME280;18103;52.246;8.052;2023-08-24T00:53:30;100644.34;;;18.51;82.99
31483;BME280;18103;52.246;8.052;2023-08-24T00:55:56;100641.81;;;18.50;83.34
31483;BME280;18103;52.246;8.052;2023-08-24T00:58:22;100641.97;;;18.48;83.06
31483;BME280;18103;52.246;8.052;2023-08-24T01:00:52;100644.50;;;18.50;83.33
31483;BME280;18103;52.246;8.052;2023-08-24T01:03:18;100647.47;;;18.46;83.67
31483;BME280;18103;52.246;8.052;2023-08-24T01:05:44;100650.84;;;18.49;83.42
31483;BME280;18103;52.246;8.052;2023-08-24T01:08:13;100656.84;;;18.51;83.68
31483;BME280;18103;52.246;8.052;2023-08-24T01:10:45;100657.19;;;18.47;83.59
31483;BME280;18103;52.246;8.052;2023-08-24T01:13:20;100660.69;;;18.40;84.03
31483;BME280;18103;52.246;8.052;2023-08-24T01:16:04;100656.81;;;18.42;84.17
31483;BME280;18103;52.246;8.052;2023-08-24T01:18:37;100653.66;;;18.39;83.79
31483;BME280;18103;52.246;8.052;2023-08-24T01:21:06;100647.97;;;18.42;83.66
31483;BME280;18103;52.246;8.052;2023-08-24T01:23:44;100649.66;;;18.43;83.57
31483;BME280;18103;52.246;8.052;2023-08-24T01:26:17;100648.16;;;18.40;83.88
31483;BME280;18103;52.246;8.052;2023-08-24T01:28:46;100645.31;;;18.42;83.45
31483;BME280;18103;52.246;8.052;2023-08-24T01:31:16;100647.47;;;18.38;84.07
31483;BME280;18103;52.246;8.052;2023-08-24T01:33:43;100638.63;;;18.38;84.54
31483;BME280;18103;52.246;8.052;2023-08-24T01:36:09;100642.25;;;18.28;84.61
31483;BME280;18103;52.246;8.052;2023-08-24T01:38:37;100633.41;;;18.28;84.66
31483;BME280;18103;52.246;8.052;2023-08-24T01:41:12;100625.75;;;18.25;84.73
31483;BME280;18103;52.246;8.052;2023-08-24T01:43:46;100612.72;;;18.22;84.64
31483;BME280;18103;52.246;8.052;2023-08-24T01:46:15;100619.22;;;18.19;84.88
31483;BME280;18103;52.246;8.052;2023-08-24T01:48:44;100614.53;;;18.21;84.48
31483;BME280;18103;52.246;8.052;2023-08-24T01:51:15;100613.19;;;18.17;84.82
31483;BME280;18103;52.246;8.052;2023-08-24T01:53:41;100604.69;;;18.13;84.69
31483;BME280;18103;52.246;8.052;2023-08-24T01:56:15;100610.03;;;18.13;84.58
31483;BME280;18103;52.246;8.052;2023-08-24T01:58:40;100607.19;;;18.15;84.87
31483;BME280;18103;52.246;8.052;2023-08-24T02:01:08;100604.31;;;18.08;85.42
31483;BME280;18103;52.246;8.052;2023-08-24T02:03:38;100610.19;;;18.12;85.15
31483;BME280;18103;52.246;8.052;2023-08-24T02:06:07;100603.34;;;18.09;85.28
31483;BME280;18103;52.246;8.052;2023-08-24T02:08:32;100610.34;;;18.19;84.85
31483;BME280;18103;52.246;8.052;2023-08-24T02:10:58;100596.31;;;18.17;84.79
31483;BME280;18103;52.246;8.052;2023-08-24T02:13:26;100605.16;;;18.09;85.19
31483;BME280;18103;52.246;8.052;2023-08-24T02:16:09;100598.63;;;18.03;85.38
31483;BME280;18103;52.246;8.052;2023-08-24T02:18:35;100599.28;;;17.97;85.30
31483;BME280;18103;52.246;8.052;2023-08-24T02:21:00;100591.59;;;17.94;85.65
31483;BME280;18103;52.246;8.052;2023-08-24T02:23:31;100581.78;;;18.03;84.92
31483;BME280;18103;52.246;8.052;2023-08-24T02:26:01;100572.22;;;17.92;85.54
31483;BME280;18103;52.246;8.052;2023-08-24T02:28:27;100576.56;;;17.93;85.40
31483;BME280;18103;52.246;8.052;2023-08-24T02:30:53;100574.06;;;17.91;85.56
31483;BME280;18103;52.246;8.052;2023-08-24T02:33:21;100574.19;;;17.90;85.65
31483;BME280;18103;52.246;8.052;2023-08-24T02:35:47;100577.69;;;17.90;85.60
31483;BME280;18103;52.246;8.052;2023-08-24T02:38:12;100576.75;;;17.91;85.81
31483;BME280;18103;52.246;8.052;2023-08-24T02:40:41;100573.06;;;17.92;85.62
31483;BME280;18103;52.246;8.052;2023-08-24T02:43:06;100579.94;;;17.95;85.71
31483;BME280;18103;52.246;8.052;2023-08-24T02:45:32;100576.06;;;17.98;86.00
31483;BME280;18103;52.246;8.052;2023-08-24T02:48:01;100571.75;;;17.97;86.55
31483;BME280;18103;52.246;8.052;2023-08-24T02:50:26;100571.06;;;17.94;86.79
31483;BME280;18103;52.246;8.052;2023-08-24T02:52:51;100569.09;;;17.97;86.95
31483;BME280;18103;52.246;8.052;2023-08-24T02:55:17;100560.06;;;17.98;87.21
31483;BME280;18103;52.246;8.052;2023-08-24T02:57:43;100565.09;;;18.01;87.17
31483;BME280;18103;52.246;8.052;2023-08-24T03:00:08;100575.78;;;18.01;87.31
31483;BME280;18103;52.246;8.052;2023-08-24T03:02:38;100571.59;;;18.06;87.14
31483;BME280;18103;52.246;8.052;2023-08-24T03:05:06;100576.44;;;18.11;86.45
31483;BME280;18103;52.246;8.052;2023-08-24T03:07:32;100575.94;;;18.07;86.83
31483;BME280;18103;52.246;8.052;2023-08-24T03:10:00;100570.94;;;18.12;87.09
31483;BME280;18103;52.246;8.052;2023-08-24T03:12:28;100562.41;;;18.09;87.29
31483;BME280;18103;52.246;8.052;2023-08-24T03:14:54;100566.09;;;18.08;87.76
31483;BME280;18103;52.246;8.052;2023-08-24T03:17:22;100563.25;;;18.09;87.82
31483;BME280;18103;52.246;8.052;2023-08-24T03:19:53;100563.91;;;18.11;87.40
31483;BME280;18103;52.246;8.052;2023-08-24T03:22:19;100569.09;;;18.13;87.57
31483;BME280;18103;52.246;8.052;2023-08-24T03:24:49;100571.63;;;18.15;87.37
31483;BME280;18103;52.246;8.052;2023-08-24T03:27:15;100581.47;;;18.14;87.27
31483;BME280;18103;52.246;8.052;2023-08-24T03:29:45;100588.16;;;18.18;87.19
31483;BME280;18103;52.246;8.052;2023-08-24T03:32:10;100591.50;;;18.37;85.71
31483;BME280;18103;52.246;8.052;2023-08-24T03:34:37;100592.19;;;18.39;85.86
31483;BME280;18103;52.246;8.052;2023-08-24T03:37:05;100577.97;;;18.22;87.40
31483;BME280;18103;52.246;8.052;2023-08-24T03:39:33;100582.16;;;18.16;87.88
31483;BME280;18103;52.246;8.052;2023-08-24T03:41:58;100575.78;;;18.25;87.68
31483;BME280;18103;52.246;8.052;2023-08-24T03:44:23;100565.44;;;18.22;87.19
31483;BME280;18103;52.246;8.052;2023-08-24T03:46:49;100570.94;;;18.21;87.25
31483;BME280;18103;52.246;8.052;2023-08-24T03:49:17;100574.63;;;18.20;87.39
31483;BME280;18103;52.246;8.052;2023-08-24T03:51:45;100574.44;;;18.21;87.20
31483;BME280;18103;52.246;8.052;2023-08-24T03:54:10;100578.63;;;18.16;87.24
31483;BME280;18103;52.246;8.052;2023-08-24T03:56:35;100584.47;;;18.19;87.42
31483;BME280;18103;52.246;8.052;2023-08-24T03:59:01;100586.16;;;18.28;86.33
31483;BME280;18103;52.246;8.052;2023-08-24T04:01:31;100579.34;;;18.34;85.95
31483;BME280;18103;52.246;8.052;2023-08-24T04:03:56;100584.69;;;18.34;86.44
31483;BME280;18103;52.246;8.052;2023-08-24T04:06:25;100580.50;;;18.32;86.50
31483;BME280;18103;52.246;8.052;2023-08-24T04:08:51;100586.50;;;18.34;87.10
31483;BME280;18103;52.246;8.052;2023-08-24T04:11:18;100577.97;;;18.38;86.15
31483;BME280;18103;52.246;8.052;2023-08-24T04:13:44;100578.66;;;18.49;85.84
31483;BME280;18103;52.246;8.052;2023-08-24T04:16:09;100579.00;;;18.37;86.23
31483;BME280;18103;52.246;8.052;2023-08-24T04:18:34;100586.50;;;18.50;85.70
31483;BME280;18103;52.246;8.052;2023-08-24T04:21:02;100592.88;;;18.57;84.77
31483;BME280;18103;52.246;8.052;2023-08-24T04:23:31;100598.91;;;18.59;85.01
31483;BME280;18103;52.246;8.052;2023-08-24T04:25:56;100595.84;;;18.38;86.62
31483;BME280;18103;52.246;8.052;2023-08-24T04:28:24;100593.72;;;18.50;86.71
31483;BME280;18103;52.246;8.052;2023-08-24T04:30:56;100590.84;;;18.35;86.78
31483;BME280;18103;52.246;8.052;2023-08-24T04:33:22;100593.50;;;18.26;86.63
31483;BME280;18103;52.246;8.052;2023-08-24T04:35:49;100603.84;;;18.29;86.80
31483;BME280;18103;52.246;8.052;2023-08-24T04:38:15;100605.38;;;18.32;86.56
31483;BME280;18103;52.246;8.052;2023-08-24T04:40:47;100607.53;;;18.37;87.22
31483;BME280;18103;52.246;8.052;2023-08-24T04:43:13;100602.38;;;18.43;86.33
31483;BME280;18103;52.246;8.052;2023-08-24T04:45:38;100596.22;;;18.51;86.65
31483;BME280;18103;52.246;8.052;2023-08-24T04:48:04;100591.34;;;18.55;85.91
31483;BME280;18103;52.246;8.052;2023-08-24T04:50:29;100582.16;;;18.57;85.95
31483;BME280;18103;52.246;8.052;2023-08-24T04:52:57;100569.47;;;18.51;86.67
31483;BME280;18103;52.246;8.052;2023-08-24T04:55:25;100568.16;;;18.63;86.05
31483;BME280;18103;52.246;8.052;2023-08-24T04:57:50;100562.97;;;18.54;86.18
31483;BME280;18103;52.246;8.052;2023-08-24T05:00:18;100556.44;;;18.48;86.71
31483;BME280;18103;52.246;8.052;2023-08-24T05:02:43;100550.09;;;18.49;86.86
31483;BME280;18103;52.246;8.052;2023-08-24T05:05:11;100553.75;;;18.64;85.66
31483;BME280;18103;52.246;8.052;2023-08-24T05:07:41;100554.09;;;18.78;85.22
31483;BME280;18103;52.246;8.052;2023-08-24T05:10:09;100560.78;;;18.82;84.68
31483;BME280;18103;52.246;8.052;2023-08-24T05:12:37;100557.75;;;18.52;87.48
31483;BME280;18103;52.246;8.052;2023-08-24T05:15:03;100551.06;;;18.73;86.71
31483;BME280;18103;52.246;8.052;2023-08-24T05:17:29;100539.56;;;18.64;87.13
31483;BME280;18103;52.246;8.052;2023-08-24T05:19:57;100526.72;;;18.59;87.69
31483;BME280;18103;52.246;8.052;2023-08-24T05:22:22;100531.34;;;18.74;86.11
31483;BME280;18103;52.246;8.052;2023-08-24T05:24:50;100515.47;;;18.80;84.46
31483;BME280;18103;52.246;8.052;2023-08-24T05:27:18;100521.13;;;18.77;84.89
31483;BME280;18103;52.246;8.052;2023-08-24T05:29:43;100511.28;;;18.86;83.54
31483;BME280;18103;52.246;8.052;2023-08-24T05:32:09;100508.09;;;18.83;83.06
31483;BME280;18103;52.246;8.052;2023-08-24T05:34:34;100512.09;;;18.87;83.29
31483;BME280;18103;52.246;8.052;2023-08-24T05:37:02;100516.63;;;18.86;83.49
31483;BME280;18103;52.246;8.052;2023-08-24T05:39:30;100509.09;;;18.81;84.12
31483;BME280;18103;52.246;8.052;2023-08-24T05:41:55;100511.13;;;18.79;83.51
31483;BME280;18103;52.246;8.052;2023-08-24T05:44:20;100519.47;;;18.85;83.74
31483;BME280;18103;52.246;8.052;2023-08-24T05:46:46;100538.38;;;18.75;84.57
31483;BME280;18103;52.246;8.052;2023-08-24T05:49:12;100549.41;;;18.88;84.03
31483;BME280;18103;52.246;8.052;2023-08-24T05:51:40;100546.25;;;18.93;83.74
31483;BME280;18103;52.246;8.052;2023-08-24T05:54:06;100544.88;;;18.97;82.97
31483;BME280;18103;52.246;8.052;2023-08-24T05:56:31;100543.22;;;19.04;82.49
31483;BME280;18103;52.246;8.052;2023-08-24T05:59:00;100540.47;;;19.12;81.65
31483;BME280;18103;52.246;8.052;2023-08-24T06:01:25;100537.81;;;19.12;80.74
31483;BME280;18103;52.246;8.052;2023-08-24T06:03:51;100542.34;;;19.12;82.01
31483;BME280;18103;52.246;8.052;2023-08-24T06:06:19;100536.63;;;19.15;81.10
31483;BME280;18103;52.246;8.052;2023-08-24T06:08:44;100535.28;;;19.19;80.70
31483;BME280;18103;52.246;8.052;2023-08-24T06:11:12;100536.25;;;19.26;80.84
31483;BME280;18103;52.246;8.052;2023-08-24T06:13:39;100534.63;;;19.25;81.07
31483;BME280;18103;52.246;8.052;2023-08-24T06:16:05;100533.59;;;19.26;82.45
31483;BME280;18103;52.246;8.052;2023-08-24T06:18:30;100528.59;;;19.23;82.34
31483;BME280;18103;52.246;8.052;2023-08-24T06:20:55;100523.69;;;19.35;81.61
31483;BME280;18103;52.246;8.052;2023-08-24T06:23:21;100524.84;;;19.41;80.98
31483;BME280;18103;52.246;8.052;2023-08-24T06:25:47;100518.31;;;19.43;82.54
31483;BME280;18103;52.246;8.052;2023-08-24T06:28:17;100518.16;;;19.37;82.40
31483;BME280;18103;52.246;8.052;2023-08-24T06:30:43;100519.03;;;19.29;83.49
31483;BME280;18103;52.246;8.052;2023-08-24T06:33:08;100519.00;;;19.37;82.20
31483;BME280;18103;52.246;8.052;2023-08-24T06:35:36;100518.59;;;19.48;81.77
31483;BME280;18103;52.246;8.052;2023-08-24T06:38:06;100524.59;;;19.59;82.05
31483;BME280;18103;52.246;8.052;2023-08-24T06:40:34;100525.59;;;19.58;82.66
31483;BME280;18103;52.246;8.052;2023-08-24T06:43:02;100520.03;;;19.67;83.25
31483;BME280;18103;52.246;8.052;2023-08-24T06:45:27;100518.34;;;19.66;83.32
31483;BME280;18103;52.246;8.052;2023-08-24T06:47:55;100503.91;;;19.76;82.88
31483;BME280;18103;52.246;8.052;2023-08-24T06:50:20;100500.19;;;19.85;82.77
31483;BME280;18103;52.246;8.052;2023-08-24T06:52:46;100498.63;;;19.91;82.84
31483;BME280;18103;52.246;8.052;2023-08-24T06:55:14;100487.22;;;19.97;83.08
31483;BME280;18103;52.246;8.052;2023-08-24T06:57:42;100485.31;;;20.06;82.71
31483;BME280;18103;52.246;8.052;2023-08-24T07:00:08;100483.19;;;20.16;82.92
31483;BME280;18103;52.246;8.052;2023-08-24T07:02:35;100474.81;;;20.19;83.03
31483;BME280;18103;52.246;8.052;2023-08-24T07:05:03;100465.97;;;20.33;82.28
31483;BME280;18103;52.246;8.052;2023-08-24T07:07:34;100458.88;;;20.41;82.65
31483;BME280;18103;52.246;8.052;2023-08-24T07:10:01;100459.63;;;20.49;82.81
31483;BME280;18103;52.246;8.052;2023-08-24T07:12:28;100463.06;;;20.58;82.55
31483;BME280;18103;52.246;8.052;2023-08-24T07:14:56;100461.97;;;20.67;82.18
31483;BME280;18103;52.246;8.052;2023-08-24T07:17:23;100458.84;;;20.79;81.32
31483;BME280;18103;52.246;8.052;2023-08-24T07:19:49;100451.06;;;20.84;81.50
31483;BME280;18103;52.246;8.052;2023-08-24T07:22:15;100455.34;;;20.93;81.35
31483;BME280;18103;52.246;8.052;2023-08-24T07:24:40;100458.56;;;21.03;80.58
31483;BME280;18103;52.246;8.052;2023-08-24T07:27:10;100456.16;;;21.09;80.43
31483;BME280;18103;52.246;8.052;2023-08-24T07:29:36;100456.25;;;21.15;79.65
31483;BME280;18103;52.246;8.052;2023-08-24T07:32:01;100456.97;;;21.24;79.91
31483;BME280;18103;52.246;8.052;2023-08-24T07:34:29;100454.41;;;21.37;79.86
31483;BME280;18103;52.246;8.052;2023-08-24T07:36:55;100451.00;;;21.44;79.22
31483;BME280;18103;52.246;8.052;2023-08-24T07:39:25;100443.47;;;21.54;79.72
31483;BME280;18103;52.246;8.052;2023-08-24T07:41:51;100446.25;;;21.61;79.92
31483;BME280;18103;52.246;8.052;2023-08-24T07:44:16;100442.47;;;21.77;79.78
31483;BME280;18103;52.246;8.052;2023-08-24T07:46:42;100443.00;;;21.87;80.34
31483;BME280;18103;52.246;8.052;2023-08-24T07:49:07;100446.19;;;21.97;79.42
31483;BME280;18103;52.246;8.052;2023-08-24T07:51:33;100442.56;;;22.12;79.56
31483;BME280;18103;52.246;8.052;2023-08-24T07:53:59;100449.44;;;22.14;79.36
31483;BME280;18103;52.246;8.052;2023-08-24T07:56:25;100439.53;;;22.21;77.97
31483;BME280;18103;52.246;8.052;2023-08-24T07:58:52;100441.78;;;22.39;77.89
31483;BME280;18103;52.246;8.052;2023-08-24T08:01:21;100445.41;;;22.53;77.73
31483;BME280;18103;52.246;8.052;2023-08-24T08:03:46;100445.66;;;22.59;76.37
31483;BME280;18103;52.246;8.052;2023-08-24T08:06:14;100450.22;;;22.65;77.13
31483;BME280;18103;52.246;8.052;2023-08-24T08:08:40;100444.69;;;22.73;76.78
31483;BME280;18103;52.246;8.052;2023-08-24T08:11:05;100445.59;;;22.87;75.19
31483;BME280;18103;52.246;8.052;2023-08-24T08:13:33;100445.41;;;22.88;74.82
31483;BME280;18103;52.246;8.052;2023-08-24T08:16:04;100445.69;;;23.00;75.09
31483;BME280;18103;52.246;8.052;2023-08-24T08:18:33;100455.00;;;23.04;75.75
31483;BME280;18103;52.246;8.052;2023-08-24T08:21:01;100445.53;;;23.15;75.99
31483;BME280;18103;52.246;8.052;2023-08-24T08:23:29;100455.13;;;23.24;74.62
31483;BME280;18103;52.246;8.052;2023-08-24T08:25:54;100456.63;;;23.34;75.02
31483;BME280;18103;52.246;8.052;2023-08-24T08:28:22;100460.56;;;23.38;75.42
31483;BME280;18103;52.246;8.052;2023-08-24T08:30:50;100443.81;;;23.49;74.78
31483;BME280;18103;52.246;8.052;2023-08-24T08:33:20;100452.28;;;23.53;75.33
31483;BME280;18103;52.246;8.052;2023-08-24T08:35:49;100447.16;;;23.65;75.43
31483;BME280;18103;52.246;8.052;2023-08-24T08:38:17;100445.72;;;23.69;74.35
31483;BME280;18103;52.246;8.052;2023-08-24T08:40:43;100443.22;;;23.67;72.57
31483;BME280;18103;52.246;8.052;2023-08-24T08:43:10;100446.78;;;23.81;71.79
31483;BME280;18103;52.246;8.052;2023-08-24T08:45:38;100446.97;;;23.86;71.32
31483;BME280;18103;52.246;8.052;2023-08-24T08:48:03;100440.97;;;23.84;69.93
31483;BME280;18103;52.246;8.052;2023-08-24T08:50:31;100425.22;;;23.88;69.91
31483;BME280;18103;52.246;8.052;2023-08-24T08:52:57;100427.31;;;23.92;69.76
31483;BME280;18103;52.246;8.052;2023-08-24T08:55:25;100420.66;;;24.02;70.01
31483;BME280;18103;52.246;8.052;2023-08-24T08:57:53;100411.97;;;24.06;70.04
31483;BME280;18103;52.246;8.052;2023-08-24T09:00:23;100398.88;;;24.17;70.58
31483;BME280;18103;52.246;8.052;2023-08-24T09:02:51;100403.22;;;24.24;71.03
31483;BME280;18103;52.246;8.052;2023-08-24T09:05:17;100405.09;;;24.37;70.85
31483;BME280;18103;52.246;8.052;2023-08-24T09:07:45;100392.19;;;24.46;71.04
31483;BME280;18103;52.246;8.052;2023-08-24T09:10:14;100400.69;;;24.50;70.07
31483;BME280;18103;52.246;8.052;2023-08-24T09:12:41;100405.69;;;24.53;69.01
31483;BME280;18103;52.246;8.052;2023-08-24T09:15:12;100399.03;;;24.62;68.07
31483;BME280;18103;52.246;8.052;2023-08-24T09:17:43;100389.88;;;24.70;67.54
31483;BME280;18103;52.246;8.052;2023-08-24T09:20:11;100391.94;;;24.74;67.50
31483;BME280;18103;52.246;8.052;2023-08-24T09:22:37;100395.47;;;24.75;67.33
31483;BME280;18103;52.246;8.052;2023-08-24T09:25:04;100391.03;;;24.87;66.96
31483;BME280;18103;52.246;8.052;2023-08-24T09:27:31;100381.66;;;24.97;67.28
31483;BME280;18103;52.246;8.052;2023-08-24T09:29:57;100389.09;;;25.08;66.14
31483;BME280;18103;52.246;8.052;2023-08-24T09:32:30;100390.53;;;25.10;66.07
31483;BME280;18103;52.246;8.052;2023-08-24T09:35:02;100383.91;;;25.06;67.67
31483;BME280;18103;52.246;8.052;2023-08-24T09:37:32;100391.13;;;25.13;66.90
31483;BME280;18103;52.246;8.052;2023-08-24T09:40:06;100385.94;;;25.18;64.36
31483;BME280;18103;52.246;8.052;2023-08-24T09:42:40;100378.00;;;25.23;63.30
31483;BME280;18103;52.246;8.052;2023-08-24T09:45:07;100376.91;;;25.31;64.31
31483;BME280;18103;52.246;8.052;2023-08-24T09:47:36;100371.72;;;25.36;66.12
31483;BME280;18103;52.246;8.052;2023-08-24T09:50:05;100367.28;;;25.48;64.09
31483;BME280;18103;52.246;8.052;2023-08-24T09:52:33;100360.75;;;25.56;61.51
31483;BME280;18103;52.246;8.052;2023-08-24T09:55:07;100362.44;;;25.57;59.31
31483;BME280;18103;52.246;8.052;2023-08-24T09:57:38;100349.53;;;25.59;60.10
31483;BME280;18103;52.246;8.052;2023-08-24T10:00:13;100346.97;;;25.64;60.67
31483;BME280;18103;52.246;8.052;2023-08-24T10:02:49;100343.69;;;25.62;59.35
31483;BME280;18103;52.246;8.052;2023-08-24T10:05:24;100334.09;;;25.66;58.07
31483;BME280;18103;52.246;8.052;2023-08-24T10:07:55;100332.41;;;25.65;57.85
31483;BME280;18103;52.246;8.052;2023-08-24T10:10:23;100330.94;;;25.69;60.09
31483;BME280;18103;52.246;8.052;2023-08-24T10:12:57;100324.41;;;25.77;60.75
31483;BME280;18103;52.246;8.052;2023-08-24T10:15:26;100317.72;;;25.79;60.00
31483;BME280;18103;52.246;8.052;2023-08-24T10:17:52;100312.31;;;25.79;59.75
31483;BME280;18103;52.246;8.052;2023-08-24T10:20:20;100308.75;;;25.86;59.70
31483;BME280;18103;52.246;8.052;2023-08-24T10:22:47;100317.63;;;25.93;60.01
31483;BME280;18103;52.246;8.052;2023-08-24T10:25:14;100308.81;;;25.98;59.90
31483;BME280;18103;52.246;8.052;2023-08-24T10:27:41;100306.34;;;25.96;60.56
31483;BME280;18103;52.246;8.052;2023-08-24T10:30:11;100309.53;;;26.11;60.93
31483;BME280;18103;52.246;8.052;2023-08-24T10:32:40;100312.88;;;26.13;61.17
31483;BME280;18103;52.246;8.052;2023-08-24T10:35:06;100306.84;;;26.11;58.76
31483;BME280;18103;52.246;8.052;2023-08-24T10:37:34;100297.38;;;26.21;59.33
31483;BME280;18103;52.246;8.052;2023-08-24T10:40:00;100300.63;;;26.29;60.44
31483;BME280;18103;52.246;8.052;2023-08-24T10:42:43;100298.50;;;26.32;59.26
31483;BME280;18103;52.246;8.052;2023-08-24T10:45:08;100295.34;;;26.35;57.84
31483;BME280;18103;52.246;8.052;2023-08-24T10:47:44;100293.38;;;26.42;59.98
31483;BME280;18103;52.246;8.052;2023-08-24T10:50:13;100292.84;;;26.52;60.02
31483;BME280;18103;52.246;8.052;2023-08-24T10:52:43;100293.28;;;26.67;58.92
31483;BME280;18103;52.246;8.052;2023-08-24T10:55:22;100296.69;;;26.62;60.57
31483;BME280;18103;52.246;8.052;2023-08-24T10:57:59;100300.75;;;26.53;58.41
31483;BME280;18103;52.246;8.052;2023-08-24T11:00:28;100301.78;;;26.71;57.13
31483;BME280;18103;52.246;8.052;2023-08-24T11:02:55;100280.56;;;26.68;56.99
31483;BME280;18103;52.246;8.052;2023-08-24T11:05:22;100269.38;;;26.94;57.86
31483;BME280;18103;52.246;8.052;2023-08-24T11:07:51;100259.09;;;26.85;58.25
31483;BME280;18103;52.246;8.052;2023-08-24T11:10:17;100247.69;;;26.83;58.48
31483;BME280;18103;52.246;8.052;2023-08-24T11:13:05;100226.38;;;26.86;57.35
31483;BME280;18103;52.246;8.052;2023-08-24T11:15:44;100212.81;;;26.86;56.65
31483;BME280;18103;52.246;8.052;2023-08-24T11:18:27;100209.34;;;26.97;56.12
31483;BME280;18103;52.246;8.052;2023-08-24T11:23:27;100199.22;;;27.05;57.05
31483;BME280;18103;52.246;8.052;2023-08-24T11:25:54;100187.91;;;27.20;57.51
31483;BME280;18103;52.246;8.052;2023-08-24T11:28:25;100181.78;;;27.12;56.74
31483;BME280;18103;52.246;8.052;2023-08-24T11:30:54;100174.97;;;27.22;56.91
31483;BME280;18103;52.246;8.052;2023-08-24T11:33:34;100184.00;;;27.15;57.25
31483;BME280;18103;52.246;8.052;2023-08-24T11:36:03;100174.72;;;27.23;57.13
31483;BME280;18103;52.246;8.052;2023-08-24T11:38:41;100174.81;;;27.17;56.86
31483;BME280;18103;52.246;8.052;2023-08-24T11:41:14;100175.22;;;27.44;57.51
31483;BME280;18103;52.246;8.052;2023-08-24T11:43:41;100171.06;;;27.53;58.42
31483;BME280;18103;52.246;8.052;2023-08-24T11:46:07;100173.69;;;27.36;57.72
31483;BME280;18103;52.246;8.052;2023-08-24T11:48:32;100180.88;;;27.42;58.16
31483;BME280;18103;52.246;8.052;2023-08-24T11:51:01;100181.22;;;27.46;58.17
31483;BME280;18103;52.246;8.052;2023-08-24T11:53:29;100180.75;;;27.61;56.75
31483;BME280;18103;52.246;8.052;2023-08-24T11:55:57;100177.59;;;27.52;56.67
31483;BME280;18103;52.246;8.052;2023-08-24T11:58:22;100181.13;;;27.41;56.40
31483;BME280;18103;52.246;8.052;2023-08-24T12:00:48;100180.50;;;27.51;57.35
31483;BME280;18103;52.246;8.052;2023-08-24T12:03:13;100164.47;;;27.61;56.78
31483;BME280;18103;52.246;8.052;2023-08-24T12:05:39;100162.09;;;27.64;57.97
31483;BME280;18103;52.246;8.052;2023-08-24T12:08:06;100164.59;;;27.66;56.83
31483;BME280;18103;52.246;8.052;2023-08-24T12:10:32;100164.31;;;27.79;57.23
31483;BME280;18103;52.246;8.052;2023-08-24T12:13:04;100162.66;;;27.78;56.60
31483;BME280;18103;52.246;8.052;2023-08-24T12:15:35;100159.63;;;27.75;57.04
31483;BME280;18103;52.246;8.052;2023-08-24T12:18:13;100165.28;;;27.73;57.08
31483;BME280;18103;52.246;8.052;2023-08-24T12:20:41;100158.78;;;27.74;55.72
31483;BME280;18103;52.246;8.052;2023-08-24T12:23:07;100160.06;;;27.83;55.44
31483;BME280;18103;52.246;8.052;2023-08-24T12:25:42;100154.41;;;27.85;56.09
31483;BME280;18103;52.246;8.052;2023-08-24T12:28:12;100152.59;;;27.91;57.05
31483;BME280;18103;52.246;8.052;2023-08-24T12:30:51;100142.50;;;27.86;55.99
31483;BME280;18103;52.246;8.052;2023-08-24T12:33:28;100152.72;;;27.96;56.48
31483;BME280;18103;52.246;8.052;2023-08-24T12:35:54;100153.59;;;27.85;57.19
31483;BME280;18103;52.246;8.052;2023-08-24T12:38:23;100157.47;;;27.89;56.29
31483;BME280;18103;52.246;8.052;2023-08-24T12:40:49;100158.16;;;27.96;56.64
31483;BME280;18103;52.246;8.052;2023-08-24T12:43:14;100157.06;;;28.09;56.11
31483;BME280;18103;52.246;8.052;2023-08-24T12:45:42;100139.41;;;27.94;55.66
31483;BME280;18103;52.246;8.052;2023-08-24T12:48:10;100133.69;;;28.08;57.16
31483;BME280;18103;52.246;8.052;2023-08-24T12:50:40;100128.19;;;27.91;56.25
31483;BME280;18103;52.246;8.052;2023-08-24T12:53:06;100134.53;;;27.96;55.77
31483;BME280;18103;52.246;8.052;2023-08-24T12:55:36;100143.06;;;27.88;55.50
31483;BME280;18103;52.246;8.052;2023-08-24T12:58:02;100144.22;;;28.04;57.22